LFRC/CER METAR and TAF weather

Enter ICAO airport designator
Station Type Date Time Source
LFRC METAR 2019/06/20 07:00 UTC NOAA

LFRC 200700Z AUTO 29010KT 9999 FEW017 SCT024 14/11 Q1014 TEMPO BKN010


Station Type Date Time Source
LFRC Decoded METAR 2019/06/20 07:00 UTC NOAA

Cherbourg / Maupertus, France (LFRC) 49-39N 001-28W 139M
Jun 20, 2019 - 03:00 AM EDT / 2019.06.20 0700 UTC
Wind: from the WNW (290 degrees) at 12 MPH (10 KT):0
Visibility: greater than 7 mile(s):0
Sky conditions: partly cloudy
Temperature: 57 F (14 C)
Dew Point: 51 F (11 C)
Relative Humidity: 82%
Pressure (altimeter): 29.94 in. Hg (1014 hPa)
ob: LFRC 200700Z AUTO 29010KT 9999 FEW017 SCT024 14/11 Q1014 TEMPO BKN010
cycle: 7

Station Type Date Time Source
LFRC TAF 2008/10/12 17:07 UTC NOAA

TAF
AMD LFRC 121707Z 121721 CNL

Example: see airport list